sensor_id;sensor_type;location;lat;lon;timestamp;temperature;humidity
11963;DHT22;62678;52.130;5.584;2023-10-19T00:01:26;11.50;99.90
11963;DHT22;62678;52.130;5.584;2023-10-19T00:03:53;11.50;99.90
11963;DHT22;62678;52.130;5.584;2023-10-19T00:06:21;11.50;99.90
11963;DHT22;62678;52.130;5.584;2023-10-19T00:08:49;11.60;99.90
11963;DHT22;62678;52.130;5.584;2023-10-19T00:11:18;11.60;99.90
11963;DHT22;62678;52.130;5.584;2023-10-19T00:13:48;11.60;99.90
11963;DHT22;62678;52.130;5.584;2023-10-19T00:16:17;11.60;99.90
11963;DHT22;62678;52.130;5.584;2023-10-19T00:18:47;11.70;99.90
11963;DHT22;62678;52.130;5.584;2023-10-19T00:21:15;11.70;99.90
11963;DHT22;62678;52.130;5.584;2023-10-19T00:23:45;11.70;99.90
11963;DHT22;62678;52.130;5.584;2023-10-19T00:26:15;11.70;99.90
11963;DHT22;62678;52.130;5.584;2023-10-19T00:28:45;11.70;99.90
11963;DHT22;62678;52.130;5.584;2023-10-19T00:31:16;11.80;99.90
11963;DHT22;62678;52.130;5.584;2023-10-19T00:33:46;11.90;99.90
11963;DHT22;62678;52.130;5.584;2023-10-19T00:36:13;11.90;99.90
11963;DHT22;62678;52.130;5.584;2023-10-19T00:38:41;12.00;99.90
11963;DHT22;62678;52.130;5.584;2023-10-19T00:41:19;11.90;99.90
11963;DHT22;62678;52.130;5.584;2023-10-19T00:43:50;12.00;99.90
11963;DHT22;62678;52.130;5.584;2023-10-19T00:46:24;12.00;99.90
11963;DHT22;62678;52.130;5.584;2023-10-19T00:48:59;12.10;99.90
11963;DHT22;62678;52.130;5.584;2023-10-19T00:51:29;12.10;99.90
11963;DHT22;62678;52.130;5.584;2023-10-19T00:54:10;12.10;99.90
11963;DHT22;62678;52.130;5.584;2023-10-19T00:56:42;12.10;99.90
11963;DHT22;62678;52.130;5.584;2023-10-19T00:59:12;12.20;99.90
11963;DHT22;62678;52.130;5.584;2023-10-19T01:01:42;12.30;99.90
11963;DHT22;62678;52.130;5.584;2023-10-19T01:04:13;12.30;99.90
11963;DHT22;62678;52.130;5.584;2023-10-19T01:06:46;12.30;99.90
11963;DHT22;62678;52.130;5.584;2023-10-19T01:09:26;12.30;99.90
11963;DHT22;62678;52.130;5.584;2023-10-19T01:11:53;12.50;99.90
11963;DHT22;62678;52.130;5.584;2023-10-19T01:14:22;12.40;99.90
11963;DHT22;62678;52.130;5.584;2023-10-19T01:16:54;12.50;99.90
11963;DHT22;62678;52.130;5.584;2023-10-19T01:19:22;12.50;99.90
11963;DHT22;62678;52.130;5.584;2023-10-19T01:21:53;12.50;99.90
11963;DHT22;62678;52.130;5.584;2023-10-19T01:24:26;12.60;99.90
11963;DHT22;62678;52.130;5.584;2023-10-19T01:27:05;12.60;99.90
11963;DHT22;62678;52.130;5.584;2023-10-19T01:29:34;12.70;99.90
11963;DHT22;62678;52.130;5.584;2023-10-19T01:32:04;12.80;99.90
11963;DHT22;62678;52.130;5.584;2023-10-19T01:34:33;12.80;99.90
11963;DHT22;62678;52.130;5.584;2023-10-19T01:37:00;12.80;99.90
11963;DHT22;62678;52.130;5.584;2023-10-19T01:39:31;12.90;99.90
11963;DHT22;62678;52.130;5.584;2023-10-19T01:41:58;12.90;99.90
11963;DHT22;62678;52.130;5.584;2023-10-19T01:44:25;12.90;99.90
11963;DHT22;62678;52.130;5.584;2023-10-19T01:46:52;13.00;99.90
11963;DHT22;62678;52.130;5.584;2023-10-19T01:49:19;13.10;99.90
11963;DHT22;62678;52.130;5.584;2023-10-19T01:51:52;13.10;99.90
11963;DHT22;62678;52.130;5.584;2023-10-19T01:54:19;13.20;99.90
11963;DHT22;62678;52.130;5.584;2023-10-19T01:56:50;13.20;99.90
11963;DHT22;62678;52.130;5.584;2023-10-19T01:59:20;13.30;99.90
11963;DHT22;62678;52.130;5.584;2023-10-19T02:01:46;13.40;99.90
11963;DHT22;62678;52.130;5.584;2023-10-19T02:04:15;13.30;99.90
11963;DHT22;62678;52.130;5.584;2023-10-19T02:06:41;13.40;99.90
11963;DHT22;62678;52.130;5.584;2023-10-19T02:09:12;13.40;99.90
11963;DHT22;62678;52.130;5.584;2023-10-19T02:11:48;13.40;99.90
11963;DHT22;62678;52.130;5.584;2023-10-19T02:14:17;13.50;99.90
11963;DHT22;62678;52.130;5.584;2023-10-19T02:16:45;13.50;99.90
11963;DHT22;62678;52.130;5.584;2023-10-19T02:19:13;13.50;99.90
11963;DHT22;62678;52.130;5.584;2023-10-19T02:21:40;13.60;99.90
11963;DHT22;62678;52.130;5.584;2023-10-19T02:24:08;13.70;99.90
11963;DHT22;62678;52.130;5.584;2023-10-19T02:26:40;13.70;99.90
11963;DHT22;62678;52.130;5.584;2023-10-19T02:29:07;13.70;99.90
11963;DHT22;62678;52.130;5.584;2023-10-19T02:31:37;13.80;99.90
11963;DHT22;62678;52.130;5.584;2023-10-19T02:34:06;13.90;99.90
11963;DHT22;62678;52.130;5.584;2023-10-19T02:36:33;13.90;99.90
11963;DHT22;62678;52.130;5.584;2023-10-19T02:39:04;13.90;99.90
11963;DHT22;62678;52.130;5.584;2023-10-19T02:41:33;14.00;99.90
11963;DHT22;62678;52.130;5.584;2023-10-19T02:44:02;14.00;99.90
11963;DHT22;62678;52.130;5.584;2023-10-19T02:46:34;14.00;99.90
11963;DHT22;62678;52.130;5.584;2023-10-19T02:49:03;14.10;99.90
11963;DHT22;62678;52.130;5.584;2023-10-19T02:51:30;14.10;99.90
11963;DHT22;62678;52.130;5.584;2023-10-19T02:53:57;14.20;99.90
11963;DHT22;62678;52.130;5.584;2023-10-19T02:56:27;14.20;99.90
11963;DHT22;62678;52.130;5.584;2023-10-19T02:58:56;14.30;99.90
11963;DHT22;62678;52.130;5.584;2023-10-19T03:01:28;14.30;99.90
11963;DHT22;62678;52.130;5.584;2023-10-19T03:03:57;14.20;99.90
11963;DHT22;62678;52.130;5.584;2023-10-19T03:06:27;14.30;99.90
11963;DHT22;62678;52.130;5.584;2023-10-19T03:08:57;14.20;99.90
11963;DHT22;62678;52.130;5.584;2023-10-19T03:11:27;14.30;99.90
11963;DHT22;62678;52.130;5.584;2023-10-19T03:13:53;14.30;99.90
11963;DHT22;62678;52.130;5.584;2023-10-19T03:16:21;14.30;99.90
11963;DHT22;62678;52.130;5.584;2023-10-19T03:18:49;14.30;99.90
11963;DHT22;62678;52.130;5.584;2023-10-19T03:21:17;14.30;99.90
11963;DHT22;62678;52.130;5.584;2023-10-19T03:23:46;14.40;99.90
11963;DHT22;62678;52.130;5.584;2023-10-19T03:26:13;14.40;99.90
11963;DHT22;62678;52.130;5.584;2023-10-19T03:28:49;14.50;99.90
11963;DHT22;62678;52.130;5.584;2023-10-19T03:31:21;14.50;99.90
11963;DHT22;62678;52.130;5.584;2023-10-19T03:33:49;14.50;99.90
11963;DHT22;62678;52.130;5.584;2023-10-19T03:36:21;14.60;99.90
11963;DHT22;62678;52.130;5.584;2023-10-19T03:38:54;14.60;99.90
11963;DHT22;62678;52.130;5.584;2023-10-19T03:41:21;14.60;99.90
11963;DHT22;62678;52.130;5.584;2023-10-19T03:43:54;14.60;99.90
11963;DHT22;62678;52.130;5.584;2023-10-19T03:46:23;14.60;99.90
11963;DHT22;62678;52.130;5.584;2023-10-19T03:48:55;14.60;99.90
11963;DHT22;62678;52.130;5.584;2023-10-19T03:51:25;14.60;99.90
11963;DHT22;62678;52.130;5.584;2023-10-19T03:53:53;14.60;99.90
11963;DHT22;62678;52.130;5.584;2023-10-19T03:56:26;14.60;99.90
11963;DHT22;62678;52.130;5.584;2023-10-19T03:58:55;14.50;99.90
11963;DHT22;62678;52.130;5.584;2023-10-19T04:01:24;14.60;99.90
11963;DHT22;62678;52.130;5.584;2023-10-19T04:03:51;14.60;99.90
11963;DHT22;62678;52.130;5.584;2023-10-19T04:06:20;14.60;99.90
11963;DHT22;62678;52.130;5.584;2023-10-19T04:08:47;14.60;99.90
11963;DHT22;62678;52.130;5.584;2023-10-19T04:11:18;14.60;99.90
11963;DHT22;62678;52.130;5.584;2023-10-19T04:13:58;14.60;99.90
11963;DHT22;62678;52.130;5.584;2023-10-19T04:16:29;14.60;99.90
11963;DHT22;62678;52.130;5.584;2023-10-19T04:18:56;14.60;99.90
11963;DHT22;62678;52.130;5.584;2023-10-19T04:21:24;14.70;99.90
11963;DHT22;62678;52.130;5.584;2023-10-19T04:23:51;14.70;99.90
11963;DHT22;62678;52.130;5.584;2023-10-19T04:26:19;14.80;99.90
11963;DHT22;62678;52.130;5.584;2023-10-19T04:28:46;14.80;99.90
11963;DHT22;62678;52.130;5.584;2023-10-19T04:31:16;14.80;99.90
11963;DHT22;62678;52.130;5.584;2023-10-19T04:33:45;14.80;99.90
11963;DHT22;62678;52.130;5.584;2023-10-19T04:36:15;14.80;99.90
11963;DHT22;62678;52.130;5.584;2023-10-19T04:38:45;14.90;99.90
11963;DHT22;62678;52.130;5.584;2023-10-19T04:41:13;14.80;99.90
11963;DHT22;62678;52.130;5.584;2023-10-19T04:43:42;14.80;99.90
11963;DHT22;62678;52.130;5.584;2023-10-19T04:46:15;14.80;99.90
11963;DHT22;62678;52.130;5.584;2023-10-19T04:48:44;14.70;99.90
11963;DHT22;62678;52.130;5.584;2023-10-19T04:51:11;14.60;99.90
11963;DHT22;62678;52.130;5.584;2023-10-19T04:53:38;14.60;99.90
11963;DHT22;62678;52.130;5.584;2023-10-19T04:56:06;14.50;99.90
11963;DHT22;62678;52.130;5.584;2023-10-19T04:58:36;14.50;99.90
11963;DHT22;62678;52.130;5.584;2023-10-19T05:01:05;14.50;99.90
11963;DHT22;62678;52.130;5.584;2023-10-19T05:03:32;14.50;99.90
11963;DHT22;62678;52.130;5.584;2023-10-19T05:06:00;14.40;99.90
11963;DHT22;62678;52.130;5.584;2023-10-19T05:08:27;14.40;99.90
11963;DHT22;62678;52.130;5.584;2023-10-19T05:10:56;14.40;99.90
11963;DHT22;62678;52.130;5.584;2023-10-19T05:13:25;14.50;99.90
11963;DHT22;62678;52.130;5.584;2023-10-19T05:15:52;14.50;99.90
11963;DHT22;62678;52.130;5.584;2023-10-19T05:18:22;14.50;99.90
11963;DHT22;62678;52.130;5.584;2023-10-19T05:20:49;14.60;99.90
11963;DHT22;62678;52.130;5.584;2023-10-19T05:23:22;14.60;99.90
11963;DHT22;62678;52.130;5.584;2023-10-19T05:25:50;14.60;99.90
11963;DHT22;62678;52.130;5.584;2023-10-19T05:28:20;14.60;99.90
11963;DHT22;62678;52.130;5.584;2023-10-19T05:30:48;14.70;99.90
11963;DHT22;62678;52.130;5.584;2023-10-19T05:33:16;14.80;99.90
11963;DHT22;62678;52.130;5.584;2023-10-19T05:35:47;14.70;99.90
11963;DHT22;62678;52.130;5.584;2023-10-19T05:38:14;14.80;99.90
11963;DHT22;62678;52.130;5.584;2023-10-19T05:40:42;14.80;99.90
11963;DHT22;62678;52.130;5.584;2023-10-19T05:43:11;14.90;99.90
11963;DHT22;62678;52.130;5.584;2023-10-19T05:45:38;14.90;99.90
11963;DHT22;62678;52.130;5.584;2023-10-19T05:48:06;14.90;99.90
11963;DHT22;62678;52.130;5.584;2023-10-19T05:50:34;14.90;99.90
11963;DHT22;62678;52.130;5.584;2023-10-19T05:53:03;14.80;99.90
11963;DHT22;62678;52.130;5.584;2023-10-19T05:55:31;14.90;99.90
11963;DHT22;62678;52.130;5.584;2023-10-19T05:57:59;14.90;99.90
11963;DHT22;62678;52.130;5.584;2023-10-19T06:00:27;14.80;99.90
11963;DHT22;62678;52.130;5.584;2023-10-19T06:02:54;14.80;99.90
11963;DHT22;62678;52.130;5.584;2023-10-19T06:05:21;14.80;99.90
11963;DHT22;62678;52.130;5.584;2023-10-19T06:07:49;14.90;99.90
11963;DHT22;62678;52.130;5.584;2023-10-19T06:10:20;14.90;99.90
11963;DHT22;62678;52.130;5.584;2023-10-19T06:12:49;14.90;99.90
11963;DHT22;62678;52.130;5.584;2023-10-19T06:15:18;14.90;99.90
11963;DHT22;62678;52.130;5.584;2023-10-19T06:17:47;14.90;99.90
11963;DHT22;62678;52.130;5.584;2023-10-19T06:20:15;14.90;99.90
11963;DHT22;62678;52.130;5.584;2023-10-19T06:22:53;14.90;99.90
11963;DHT22;62678;52.130;5.584;2023-10-19T06:25:24;14.90;99.90
11963;DHT22;62678;52.130;5.584;2023-10-19T06:27:52;14.90;99.90
11963;DHT22;62678;52.130;5.584;2023-10-19T06:30:23;14.90;99.90
11963;DHT22;62678;52.130;5.584;2023-10-19T06:32:52;15.00;99.90
11963;DHT22;62678;52.130;5.584;2023-10-19T06:35:20;15.00;99.90
11963;DHT22;62678;52.130;5.584;2023-10-19T06:37:48;15.00;99.90
11963;DHT22;62678;52.130;5.584;2023-10-19T06:40:16;15.00;99.90
11963;DHT22;62678;52.130;5.584;2023-10-19T06:42:45;15.00;99.90
11963;DHT22;62678;52.130;5.584;2023-10-19T06:45:13;15.00;99.90
11963;DHT22;62678;52.130;5.584;2023-10-19T06:47:41;15.10;99.90
11963;DHT22;62678;52.130;5.584;2023-10-19T06:50:11;15.10;99.90
11963;DHT22;62678;52.130;5.584;2023-10-19T06:52:39;15.10;99.90
11963;DHT22;62678;52.130;5.584;2023-10-19T06:55:07;15.10;99.90
11963;DHT22;62678;52.130;5.584;2023-10-19T06:57:40;15.10;99.90
11963;DHT22;62678;52.130;5.584;2023-10-19T07:00:11;15.10;99.90
11963;DHT22;62678;52.130;5.584;2023-10-19T07:02:42;15.20;99.90
11963;DHT22;62678;52.130;5.584;2023-10-19T07:05:10;15.20;99.90
11963;DHT22;62678;52.130;5.584;2023-10-19T07:07:39;15.10;99.90
11963;DHT22;62678;52.130;5.584;2023-10-19T07:10:08;15.20;99.90
11963;DHT22;62678;52.130;5.584;2023-10-19T07:12:38;15.20;99.90
11963;DHT22;62678;52.130;5.584;2023-10-19T07:15:07;15.10;99.90
11963;DHT22;62678;52.130;5.584;2023-10-19T07:17:41;15.20;99.90
11963;DHT22;62678;52.130;5.584;2023-10-19T07:20:10;15.20;99.90
11963;DHT22;62678;52.130;5.584;2023-10-19T07:22:50;15.20;99.90
11963;DHT22;62678;52.130;5.584;2023-10-19T07:25:18;15.20;99.90
11963;DHT22;62678;52.130;5.584;2023-10-19T07:27:47;15.20;99.90
11963;DHT22;62678;52.130;5.584;2023-10-19T07:30:16;15.20;99.90
11963;DHT22;62678;52.130;5.584;2023-10-19T07:32:48;15.20;99.90
11963;DHT22;62678;52.130;5.584;2023-10-19T07:35:20;15.20;99.90
11963;DHT22;62678;52.130;5.584;2023-10-19T07:37:48;15.20;99.90
11963;DHT22;62678;52.130;5.584;2023-10-19T07:40:16;15.20;99.90
11963;DHT22;62678;52.130;5.584;2023-10-19T07:42:44;15.30;99.90
11963;DHT22;62678;52.130;5.584;2023-10-19T07:45:12;15.30;99.90
11963;DHT22;62678;52.130;5.584;2023-10-19T07:47:39;15.40;99.90
11963;DHT22;62678;52.130;5.584;2023-10-19T07:50:10;15.40;99.90
11963;DHT22;62678;52.130;5.584;2023-10-19T07:52:42;15.40;99.90
11963;DHT22;62678;52.130;5.584;2023-10-19T07:55:10;15.40;99.90
11963;DHT22;62678;52.130;5.584;2023-10-19T07:57:37;15.40;99.90
11963;DHT22;62678;52.130;5.584;2023-10-19T08:00:07;15.50;99.90
11963;DHT22;62678;52.130;5.584;2023-10-19T08:02:36;15.50;99.90
11963;DHT22;62678;52.130;5.584;2023-10-19T08:05:04;15.50;99.90
11963;DHT22;62678;52.130;5.584;2023-10-19T08:07:34;15.50;99.90
11963;DHT22;62678;52.130;5.584;2023-10-19T08:10:02;15.50;99.90
11963;DHT22;62678;52.130;5.584;2023-10-19T08:12:31;15.60;99.90
11963;DHT22;62678;52.130;5.584;2023-10-19T08:14:59;15.50;99.90
11963;DHT22;62678;52.130;5.584;2023-10-19T08:17:28;15.60;99.90
11963;DHT22;62678;52.130;5.584;2023-10-19T08:19:55;15.60;99.90
11963;DHT22;62678;52.130;5.584;2023-10-19T08:22:23;15.70;99.90
11963;DHT22;62678;52.130;5.584;2023-10-19T08:24:52;15.70;99.90
11963;DHT22;62678;52.130;5.584;2023-10-19T08:27:20;15.70;99.90
11963;DHT22;62678;52.130;5.584;2023-10-19T08:29:47;15.70;99.90
11963;DHT22;62678;52.130;5.584;2023-10-19T08:32:14;15.80;99.90
11963;DHT22;62678;52.130;5.584;2023-10-19T08:34:42;15.80;99.90
11963;DHT22;62678;52.130;5.584;2023-10-19T08:37:09;15.80;99.90
11963;DHT22;62678;52.130;5.584;2023-10-19T08:39:36;15.90;99.90
11963;DHT22;62678;52.130;5.584;2023-10-19T08:42:05;15.90;99.90
11963;DHT22;62678;52.130;5.584;2023-10-19T08:44:33;15.90;99.90
11963;DHT22;62678;52.130;5.584;2023-10-19T08:47:01;16.10;99.90
11963;DHT22;62678;52.130;5.584;2023-10-19T08:49:31;16.10;99.90
11963;DHT22;62678;52.130;5.584;2023-10-19T08:51:59;16.20;99.90
11963;DHT22;62678;52.130;5.584;2023-10-19T08:54:30;16.20;99.90
11963;DHT22;62678;52.130;5.584;2023-10-19T08:56:59;16.30;99.90
11963;DHT22;62678;52.130;5.584;2023-10-19T08:59:28;16.40;99.90
11963;DHT22;62678;52.130;5.584;2023-10-19T09:02:00;16.30;99.90
11963;DHT22;62678;52.130;5.584;2023-10-19T09:04:28;16.50;99.90
11963;DHT22;62678;52.130;5.584;2023-10-19T09:06:55;16.40;99.90
11963;DHT22;62678;52.130;5.584;2023-10-19T09:09:22;16.50;99.90
11963;DHT22;62678;52.130;5.584;2023-10-19T09:11:51;16.50;99.90
11963;DHT22;62678;52.130;5.584;2023-10-19T09:14:31;16.60;99.90
11963;DHT22;62678;52.130;5.584;2023-10-19T09:17:00;16.70;99.90
11963;DHT22;62678;52.130;5.584;2023-10-19T09:19:39;16.60;99.90
11963;DHT22;62678;52.130;5.584;2023-10-19T09:22:07;16.70;99.90
11963;DHT22;62678;52.130;5.584;2023-10-19T09:24:43;16.80;99.90
11963;DHT22;62678;52.130;5.584;2023-10-19T09:27:11;16.90;99.90
11963;DHT22;62678;52.130;5.584;2023-10-19T09:29:41;16.90;99.90
11963;DHT22;62678;52.130;5.584;2023-10-19T09:32:08;17.00;99.90
11963;DHT22;62678;52.130;5.584;2023-10-19T09:34:40;17.40;99.90
11963;DHT22;62678;52.130;5.584;2023-10-19T09:37:10;17.60;99.90
11963;DHT22;62678;52.130;5.584;2023-10-19T09:39:38;17.70;99.90
11963;DHT22;62678;52.130;5.584;2023-10-19T09:42:10;17.70;99.90
11963;DHT22;62678;52.130;5.584;2023-10-19T09:44:42;17.50;99.90
11963;DHT22;62678;52.130;5.584;2023-10-19T09:47:12;17.50;99.90
11963;DHT22;62678;52.130;5.584;2023-10-19T09:49:40;17.60;99.90
11963;DHT22;62678;52.130;5.584;2023-10-19T09:52:10;17.60;99.90
11963;DHT22;62678;52.130;5.584;2023-10-19T09:54:50;17.70;99.90
11963;DHT22;62678;52.130;5.584;2023-10-19T09:57:27;17.70;99.90
11963;DHT22;62678;52.130;5.584;2023-10-19T10:00:02;17.70;99.90
11963;DHT22;62678;52.130;5.584;2023-10-19T10:02:39;17.90;99.90
11963;DHT22;62678;52.130;5.584;2023-10-19T10:08:30;18.20;99.90
11963;DHT22;62678;52.130;5.584;2023-10-19T10:10:58;18.40;99.90
11963;DHT22;62678;52.130;5.584;2023-10-19T10:13:38;18.30;99.90
11963;DHT22;62678;52.130;5.584;2023-10-19T10:16:07;18.40;99.90
11963;DHT22;62678;52.130;5.584;2023-10-19T10:18:35;18.50;99.90
11963;DHT22;62678;52.130;5.584;2023-10-19T10:21:07;18.60;99.90
11963;DHT22;62678;52.130;5.584;2023-10-19T10:23:41;18.70;99.90
11963;DHT22;62678;52.130;5.584;2023-10-19T10:26:10;18.90;99.90
11963;DHT22;62678;52.130;5.584;2023-10-19T10:28:38;18.70;99.90
11963;DHT22;62678;52.130;5.584;2023-10-19T10:31:13;18.50;99.90
11963;DHT22;62678;52.130;5.584;2023-10-19T10:33:43;18.50;99.90
11963;DHT22;62678;52.130;5.584;2023-10-19T10:36:13;18.30;99.90
11963;DHT22;62678;52.130;5.584;2023-10-19T10:38:41;18.20;99.90
11963;DHT22;62678;52.130;5.584;2023-10-19T10:41:09;18.20;99.90
11963;DHT22;62678;52.130;5.584;2023-10-19T10:43:50;18.20;99.90
11963;DHT22;62678;52.130;5.584;2023-10-19T10:46:21;18.40;99.90
11963;DHT22;62678;52.130;5.584;2023-10-19T10:48:48;18.60;99.90
11963;DHT22;62678;52.130;5.584;2023-10-19T10:51:19;18.40;99.90
11963;DHT22;62678;52.130;5.584;2023-10-19T10:53:48;18.40;99.90
11963;DHT22;62678;52.130;5.584;2023-10-19T10:56:16;18.50;99.90
11963;DHT22;62678;52.130;5.584;2023-10-19T10:58:44;18.50;99.90
11963;DHT22;62678;52.130;5.584;2023-10-19T11:01:12;18.80;99.90
11963;DHT22;62678;52.130;5.584;2023-10-19T11:03:42;18.60;99.90
11963;DHT22;62678;52.130;5.584;2023-10-19T11:06:09;18.80;99.90
11963;DHT22;62678;52.130;5.584;2023-10-19T11:08:37;18.80;99.90
11963;DHT22;62678;52.130;5.584;2023-10-19T11:11:08;18.80;99.90
11963;DHT22;62678;52.130;5.584;2023-10-19T11:13:36;18.80;99.90
11963;DHT22;62678;52.130;5.584;2023-10-19T11:16:05;18.90;99.90
11963;DHT22;62678;52.130;5.584;2023-10-19T11:18:34;19.10;99.90
11963;DHT22;62678;52.130;5.584;2023-10-19T11:21:07;19.10;99.90
11963;DHT22;62678;52.130;5.584;2023-10-19T11:23:39;19.00;99.90
11963;DHT22;62678;52.130;5.584;2023-10-19T11:26:08;19.10;99.90
11963;DHT22;62678;52.130;5.584;2023-10-19T11:28:37;19.20;99.90
11963;DHT22;62678;52.130;5.584;2023-10-19T11:31:17;19.20;99.90
11963;DHT22;62678;52.130;5.584;2023-10-19T11:33:45;19.40;99.90
11963;DHT22;62678;52.130;5.584;2023-10-19T11:36:16;19.50;99.90
11963;DHT22;62678;52.130;5.584;2023-10-19T11:38:46;19.50;99.90
11963;DHT22;62678;52.130;5.584;2023-10-19T11:41:15;19.40;99.90
11963;DHT22;62678;52.130;5.584;2023-10-19T11:43:44;19.50;99.90
11963;DHT22;62678;52.130;5.584;2023-10-19T11:46:11;19.60;99.90
11963;DHT22;62678;52.130;5.584;2023-10-19T11:48:40;19.70;99.90
11963;DHT22;62678;52.130;5.584;2023-10-19T11:51:08;19.70;99.90
11963;DHT22;62678;52.130;5.584;2023-10-19T11:53:38;19.90;99.90
11963;DHT22;62678;52.130;5.584;2023-10-19T11:56:06;20.20;99.90
11963;DHT22;62678;52.130;5.584;2023-10-19T11:58:35;20.30;99.90
11963;DHT22;62678;52.130;5.584;2023-10-19T12:01:06;20.40;99.90
11963;DHT22;62678;52.130;5.584;2023-10-19T12:03:34;20.40;99.90
11963;DHT22;62678;52.130;5.584;2023-10-19T12:06:03;20.20;99.90
11963;DHT22;62678;52.130;5.584;2023-10-19T12:08:32;20.20;99.90
11963;DHT22;62678;52.130;5.584;2023-10-19T12:11:01;19.90;99.90
11963;DHT22;62678;52.130;5.584;2023-10-19T12:13:30;20.00;99.90
11963;DHT22;62678;52.130;5.584;2023-10-19T12:15:58;20.10;99.90
11963;DHT22;62678;52.130;5.584;2023-10-19T12:18:25;20.10;99.90
11963;DHT22;62678;52.130;5.584;2023-10-19T12:20:54;20.10;99.90
11963;DHT22;62678;52.130;5.584;2023-10-19T12:23:25;20.10;99.90
11963;DHT22;62678;52.130;5.584;2023-10-19T12:25:53;19.70;99.90
11963;DHT22;62678;52.130;5.584;2023-10-19T12:28:22;19.60;99.90
11963;DHT22;62678;52.130;5.584;2023-10-19T12:30:50;19.40;99.90
11963;DHT22;62678;52.130;5.584;2023-10-19T12:33:17;19.60;99.90
11963;DHT22;62678;52.130;5.584;2023-10-19T12:35:45;19.70;99.90
11963;DHT22;62678;52.130;5.584;2023-10-19T12:38:17;19.60;99.90
11963;DHT22;62678;52.130;5.584;2023-10-19T12:40:46;19.60;99.90
11963;DHT22;62678;52.130;5.584;2023-10-19T12:43:14;19.60;99.90
11963;DHT22;62678;52.130;5.584;2023-10-19T12:45:46;19.60;99.90
11963;DHT22;62678;52.130;5.584;2023-10-19T12:48:19;19.50;99.90
11963;DHT22;62678;52.130;5.584;2023-10-19T12:50:47;19.50;99.90
11963;DHT22;62678;52.130;5.584;2023-10-19T12:53:14;19.30;99.90
11963;DHT22;62678;52.130;5.584;2023-10-19T12:55:41;19.40;99.90
11963;DHT22;62678;52.130;5.584;2023-10-19T12:58:09;19.20;99.90
11963;DHT22;62678;52.130;5.584;2023-10-19T13:00:37;19.10;99.90
11963;DHT22;62678;52.130;5.584;2023-10-19T13:03:11;19.00;99.90
11963;DHT22;62678;52.130;5.584;2023-10-19T13:05:43;19.20;99.90
11963;DHT22;62678;52.130;5.584;2023-10-19T13:08:12;19.10;99.90
11963;DHT22;62678;52.130;5.584;2023-10-19T13:10:41;19.10;99.90
11963;DHT22;62678;52.130;5.584;2023-10-19T13:13:09;19.10;99.90
11963;DHT22;62678;52.130;5.584;2023-10-19T13:15:39;19.10;99.90
11963;DHT22;62678;52.130;5.584;2023-10-19T13:18:07;19.00;99.90
11963;DHT22;62678;52.130;5.584;2023-10-19T13:20:38;18.90;99.90
11963;DHT22;62678;52.130;5.584;2023-10-19T13:23:10;19.00;99.90
11963;DHT22;62678;52.130;5.584;2023-10-19T13:25:39;18.90;99.90
11963;DHT22;62678;52.130;5.584;2023-10-19T13:28:08;18.80;99.90
11963;DHT22;62678;52.130;5.584;2023-10-19T13:30:39;18.70;99.90
11963;DHT22;62678;52.130;5.584;2023-10-19T13:33:07;18.80;99.90
11963;DHT22;62678;52.130;5.584;2023-10-19T13:35:39;18.60;99.90
11963;DHT22;62678;52.130;5.584;2023-10-19T13:38:08;18.80;99.90
11963;DHT22;62678;52.130;5.584;2023-10-19T13:40:35;18.80;99.90
11963;DHT22;62678;52.130;5.584;2023-10-19T13:43:04;18.70;99.90
11963;DHT22;62678;52.130;5.584;2023-10-19T13:45:32;18.60;99.90
11963;DHT22;62678;52.130;5.584;2023-10-19T13:48:01;18.60;99.90
11963;DHT22;62678;52.130;5.584;2023-10-19T13:50:28;18.40;99.90
11963;DHT22;62678;52.130;5.584;2023-10-19T13:52:58;18.50;99.90
11963;DHT22;62678;52.130;5.584;2023-10-19T13:55:26;18.40;99.90
11963;DHT22;62678;52.130;5.584;2023-10-19T13:57:54;18.30;99.90
11963;DHT22;62678;52.130;5.584;2023-10-19T14:00:23;18.40;99.90
11963;DHT22;62678;52.130;5.584;2023-10-19T14:02:56;18.40;99.90
11963;DHT22;62678;52.130;5.584;2023-10-19T14:05:24;18.50;99.90
11963;DHT22;62678;52.130;5.584;2023-10-19T14:07:52;18.80;99.90
11963;DHT22;62678;52.130;5.584;2023-10-19T14:10:21;18.80;99.90
11963;DHT22;62678;52.130;5.584;2023-10-19T14:12:52;19.00;99.90
11963;DHT22;62678;52.130;5.584;2023-10-19T14:15:20;18.80;99.90
11963;DHT22;62678;52.130;5.584;2023-10-19T14:17:48;18.90;99.90
11963;DHT22;62678;52.130;5.584;2023-10-19T14:20:17;18.70;99.90
11963;DHT22;62678;52.130;5.584;2023-10-19T14:22:45;18.60;99.90
11963;DHT22;62678;52.130;5.584;2023-10-19T14:25:13;18.40;99.90
11963;DHT22;62678;52.130;5.584;2023-10-19T14:27:43;18.40;99.90
11963;DHT22;62678;52.130;5.584;2023-10-19T14:30:13;18.40;99.90
11963;DHT22;62678;52.130;5.584;2023-10-19T14:32:40;18.20;99.90
11963;DHT22;62678;52.130;5.584;2023-10-19T14:35:08;18.10;99.90
11963;DHT22;62678;52.130;5.584;2023-10-19T14:37:38;18.20;99.90
11963;DHT22;62678;52.130;5.584;2023-10-19T14:40:07;18.20;99.90
11963;DHT22;62678;52.130;5.584;2023-10-19T14:42:37;18.10;99.90
11963;DHT22;62678;52.130;5.584;2023-10-19T14:45:10;18.20;99.90
11963;DHT22;62678;52.130;5.584;2023-10-19T14:47:40;18.10;99.90
11963;DHT22;62678;52.130;5.584;2023-10-19T14:50:09;18.10;99.90
11963;DHT22;62678;52.130;5.584;2023-10-19T14:52:39;18.10;99.90
11963;DHT22;62678;52.130;5.584;2023-10-19T14:55:07;18.00;99.90
11963;DHT22;62678;52.130;5.584;2023-10-19T14:57:35;18.00;99.90
11963;DHT22;62678;52.130;5.584;2023-10-19T15:00:04;18.10;99.90
11963;DHT22;62678;52.130;5.584;2023-10-19T15:02:42;18.10;99.90
11963;DHT22;62678;52.130;5.584;2023-10-19T15:05:10;18.10;99.90
11963;DHT22;62678;52.130;5.584;2023-10-19T15:07:41;18.10;99.90
11963;DHT22;62678;52.130;5.584;2023-10-19T15:10:10;18.10;99.90
11963;DHT22;62678;52.130;5.584;2023-10-19T15:12:38;18.10;99.90
11963;DHT22;62678;52.130;5.584;2023-10-19T15:15:06;17.90;99.90
11963;DHT22;62678;52.130;5.584;2023-10-19T15:17:37;18.00;99.90
11963;DHT22;62678;52.130;5.584;2023-10-19T15:20:08;17.90;99.90
11963;DHT22;62678;52.130;5.584;2023-10-19T15:22:36;17.80;99.90
11963;DHT22;62678;52.130;5.584;2023-10-19T15:25:04;17.70;99.90
11963;DHT22;62678;52.130;5.584;2023-10-19T15:27:33;17.60;99.90
11963;DHT22;62678;52.130;5.584;2023-10-19T15:30:01;17.60;99.90
11963;DHT22;62678;52.130;5.584;2023-10-19T15:32:31;17.70;99.90
11963;DHT22;62678;52.130;5.584;2023-10-19T15:34:59;17.70;99.90
11963;DHT22;62678;52.130;5.584;2023-10-19T15:37:28;17.60;99.90
11963;DHT22;62678;52.130;5.584;2023-10-19T15:39:56;17.50;99.90
11963;DHT22;62678;52.130;5.584;2023-10-19T15:42:23;17.50;99.90
11963;DHT22;62678;52.130;5.584;2023-10-19T15:44:52;17.50;99.90
11963;DHT22;62678;52.130;5.584;2023-10-19T15:47:19;17.40;99.90